Latest Weather Observations for Grafton Airport

IDN60801

Issued at 9:35 pm EST Thursday 21 August 2014 (issued every 30 minutes, with the page automatically refreshed every 10 minutes)

About weather observations | Map of weather stations | Latest weather observations for NSW | Other Formats
Station Details ID: 058161 Name: GRAFTON AIRPORT AWS Lat: -29.76 Lon: 153.03 Height: 25.09 m
Data from the previous 72 hours. | See also: Recent months for locations in New South Wales
Date/Time
EST
Temp
°C
App
Temp
°C
Dew
Point
Rel
Hum
%
Delta-T
°C
Wind Press
QNH
hPa
Press
MSL
hPa
Rain
since 9 am
mm
Dir
 
Spd
km/h
Gust
km/h
Spd
kts
Gust
kts
21/09:30pm 14.7 12.8 10.5 76 2.2 S 11 17 6 9 1026.9 - 0.0
21/09:00pm 14.8 12.9 10.6 76 2.2 SSW 11 15 6 8 1026.8 1026.8 0.0
21/08:30pm 14.9 13.4 10.5 75 2.3 SSW 9 13 5 7 1026.8 - 0.0
21/08:00pm 15.4 13.5 10.6 73 2.5 SSW 11 15 6 8 1026.7 1026.7 0.0
21/07:30pm 15.5 13.9 10.3 71 2.7 S 9 15 5 8 1026.4 - 0.0
21/07:00pm 15.6 14.3 9.9 69 3.0 SSW 7 11 4 6 1026.1 1026.1 0.0
21/06:30pm 15.5 13.9 10.1 70 2.8 S 9 11 5 6 1025.7 - 0.0
21/06:00pm 15.9 13.9 10.0 68 3.1 S 11 15 6 8 1025.4 1025.4 0.0
21/05:30pm 16.1 13.5 9.3 64 3.5 S 13 15 7 8 1025.0 - 0.0
21/05:00pm 16.4 13.3 8.9 61 3.8 SSE 15 24 8 13 1024.5 1024.5 0.0
21/04:30pm 17.4 14.8 9.3 59 4.2 SSE 13 20 7 11 1024.3 - 0.0
21/04:00pm 17.5 13.5 8.9 57 4.4 SSE 20 26 11 14 1023.8 1023.8 0.0
21/03:30pm 18.5 14.1 9.0 54 5.0 SSE 22 35 12 19 1023.6 - 0.0
21/03:00pm 18.2 14.3 9.5 57 4.6 SSE 20 33 11 18 1023.7 1023.7 0.0
21/02:30pm 18.0 13.8 9.6 58 4.4 SE 22 35 12 19 1023.8 - 0.0
21/02:00pm 18.6 14.3 10.9 61 4.2 SE 24 41 13 22 1023.8 1023.8 0.0
21/01:56pm 18.2 13.0 10.3 60 4.2 SE 28 48 15 26 1023.7 - 0.0
21/01:30pm 19.0 15.8 10.0 56 4.8 SE 17 28 9 15 1023.7 - 0.0
21/01:00pm 18.8 15.1 9.6 55 4.8 SE 19 28 10 15 1023.8 1023.8 0.0
21/12:30pm 20.3 16.3 8.9 48 6.0 ESE 20 32 11 17 1024.0 - 0.0
21/12:00pm 20.6 16.7 9.5 49 5.9 SE 20 30 11 16 1024.5 1024.5 0.0
21/11:30am 20.5 16.6 9.4 49 5.9 SSE 20 30 11 16 1024.8 - 0.0
21/11:00am 19.5 15.7 9.1 51 5.4 S 19 28 10 15 1025.1 1025.1 0.0
21/10:30am 19.5 16.1 9.1 51 5.5 S 17 26 9 14 1025.4 - 0.0
21/10:00am 18.8 16.0 8.7 52 5.2 SSW 13 22 7 12 1025.5 1025.5 0.0
21/09:30am 18.1 14.1 8.1 52 5.1 SSW 19 30 10 16 1025.6 - 0.0
21/09:00am 16.8 13.3 8.8 59 4.1 SSW 17 28 9 15 1025.5 1025.5 0.2
21/08:30am 15.9 12.7 8.4 61 3.8 SSW 15 19 8 10 1025.5 - 0.2
21/08:00am 14.8 13.1 8.3 65 3.3 SSW 7 11 4 6 1025.6 1025.6 0.2
21/07:30am 13.6 13.2 8.2 70 2.7 CALM 0 6 0 3 1025.3 - 0.2
21/07:00am 12.5 12.3 9.0 79 1.7 CALM 0 0 0 0 1025.1 1025.1 0.2
21/06:30am 12.3 10.7 8.0 75 2.1 SSW 6 7 3 4 1024.9 - 0.2
21/06:00am 12.1 11.2 7.8 75 2.1 SSW 2 7 1 4 1024.5 1024.5 0.2
21/05:30am 12.5 11.9 7.6 72 2.4 CALM 0 6 0 3 1024.1 - 0.2
21/05:00am 12.4 10.5 7.7 73 2.3 SW 7 9 4 5 1023.9 1023.9 0.2
21/04:30am 12.5 10.8 7.4 71 2.5 SW 6 7 3 4 1023.8 - 0.2
21/04:00am 12.4 11.0 7.3 71 2.5 SW 4 7 2 4 1023.6 1023.6 0.2
21/03:30am 12.8 11.0 7.3 69 2.7 SSW 6 7 3 4 1023.6 - 0.2
21/03:00am 12.8 12.3 7.7 71 2.5 CALM 0 0 0 0 1023.5 1023.5 0.2
21/02:30am 12.3 11.7 7.4 72 2.4 CALM 0 0 0 0 1023.5 - 0.2
21/02:00am 13.1 11.2 6.7 65 3.1 WSW 6 7 3 4 1023.5 1023.5 0.2
21/01:30am 13.2 11.4 7.0 66 3.0 S 6 7 3 4 1023.7 - 0.2
21/01:00am 12.9 12.3 7.4 69 2.7 CALM 0 6 0 3 1023.7 1023.7 0.2
21/12:30am 13.2 12.5 7.0 66 3.0 CALM 0 0 0 0 1023.8 - 0.2
21/12:00am 13.1 12.0 6.9 66 3.0 WSW 2 7 1 4 1023.7 1023.7 0.2
 
Date/Time
EST
Temp
°C
App
Temp
°C
Dew
Point
Rel
Hum
%
Delta-T
°C
Wind Press
QNH
hPa
Press
MSL
hPa
Rain
since 9 am
mm
Dir
 
Spd
km/h
Gust
km/h
Spd
kts
Gust
kts
20/11:30pm 13.4 12.3 7.0 65 3.1 S 2 6 1 3 1023.6 - 0.2
20/11:00pm 13.2 11.1 6.5 64 3.2 SSW 7 9 4 5 1023.5 1023.5 0.2
20/10:30pm 13.8 11.3 6.7 62 3.4 S 9 11 5 6 1023.6 - 0.2
20/10:00pm 13.9 10.6 6.3 60 3.6 S 13 17 7 9 1023.6 1023.6 0.2
20/09:30pm 14.3 11.0 6.2 58 3.9 S 13 20 7 11 1023.5 - 0.2
20/09:00pm 14.6 10.5 6.4 58 3.9 S 17 24 9 13 1023.5 1023.5 0.2
20/08:30pm 14.9 11.0 7.2 60 3.8 S 17 22 9 12 1023.4 - 0.2
20/08:00pm 14.7 11.2 7.3 61 3.6 S 15 20 8 11 1023.1 1023.1 0.2
20/07:30pm 15.4 11.1 7.2 58 4.0 S 19 24 10 13 1022.6 - 0.2
20/07:00pm 15.9 11.8 7.7 58 4.1 S 19 26 10 14 1022.4 1022.4 0.2
20/06:30pm 16.7 12.5 8.4 58 4.2 S 20 33 11 18 1022.2 - 0.2
20/06:00pm 16.3 13.2 8.8 61 3.8 S 15 24 8 13 1021.6 1021.6 0.2
20/05:30pm 16.9 12.5 9.1 60 4.0 SSE 22 39 12 21 1020.9 - 0.2
20/05:00pm 17.6 13.2 9.0 57 4.5 SSE 22 35 12 19 1020.5 1020.5 0.2
20/04:30pm 18.5 14.2 9.3 55 4.8 SSE 22 35 12 19 1020.0 - 0.2
20/04:00pm 19.8 15.9 8.5 48 5.9 SE 19 28 10 15 1019.5 1019.5 0.2
20/03:30pm 20.1 15.4 7.8 45 6.3 SSE 22 32 12 17 1019.3 - 0.2
20/03:00pm 21.0 16.9 8.0 43 6.7 SSE 19 28 10 15 1019.2 1019.2 0.2
20/02:30pm 21.2 16.9 7.1 40 7.2 ESE 19 26 10 14 1019.0 - 0.2
20/02:00pm 21.6 17.0 6.3 37 7.7 S 20 30 11 16 1018.9 1018.9 0.2
20/01:30pm 21.5 16.7 5.4 35 8.0 S 20 30 11 16 1019.1 - 0.2
20/01:00pm 20.9 17.3 6.8 40 7.1 S 15 26 8 14 1019.3 1019.3 0.2
20/12:30pm 21.2 16.3 7.1 40 7.2 SSE 22 35 12 19 1019.5 - 0.2
20/12:00pm 20.7 16.1 6.6 40 7.1 SSW 20 30 11 16 1020.0 1020.0 0.0
20/11:30am 20.2 15.1 7.6 44 6.5 S 24 33 13 18 1020.1 - 0.0
20/11:00am 19.9 14.3 7.3 44 6.4 S 26 37 14 20 1020.5 1020.5 0.0
20/10:30am 19.9 17.6 10.3 54 5.2 SSW 13 26 7 14 1020.6 - 0.0
20/10:00am 18.2 15.8 10.1 59 4.3 SW 13 20 7 11 1020.8 1020.8 0.0
20/09:30am 16.3 16.0 10.2 67 3.2 ENE 2 9 1 5 1020.8 - 0.0
20/09:00am 14.7 14.1 10.5 76 2.2 N 4 9 2 5 1020.9 1020.9 1.4
20/08:30am 12.4 12.1 10.1 86 1.2 W 2 7 1 4 1020.7 - 1.4
20/08:00am 10.6 10.7 10.3 98 0.2 CALM 0 0 0 0 1020.7 1020.7 1.4
20/07:30am 7.9 7.4 7.8 99 0.0 CALM 0 0 0 0 1020.3 - 1.4
20/07:00am 7.2 5.2 7.1 99 0.0 S 7 9 4 5 1019.7 1019.7 1.4
20/06:48am 6.6 4.7 6.5 99 0.0 S 6 9 3 5 1019.7 - 1.4
20/06:35am 5.1 3.9 4.8 98 0.1 CALM 0 0 0 0 1019.6 - 1.4
20/06:30am 5.3 4.2 5.2 99 0.0 CALM 0 0 0 0 1019.5 - 1.4
20/06:00am 5.8 4.8 5.7 99 0.0 CALM 0 6 0 3 1019.4 1019.4 1.4
20/05:55am 5.6 4.6 5.5 99 0.0 CALM 0 0 0 0 1019.2 - 1.4
20/05:30am 5.8 4.8 5.7 99 0.0 CALM 0 0 0 0 1019.0 - 1.4
20/05:00am 6.5 5.3 6.4 99 0.0 S 2 6 1 3 1018.6 1018.6 1.4
20/04:30am 6.0 4.3 5.9 99 0.0 S 4 9 2 5 1018.2 - 1.4
20/04:09am 6.5 5.7 6.4 99 0.0 CALM 0 0 0 0 1018.0 - 1.4
20/04:00am 6.7 5.9 6.6 99 0.0 CALM 0 0 0 0 1017.8 1017.8 1.4
20/03:42am 6.5 5.7 6.4 99 0.0 CALM 0 0 0 0 1017.6 - 1.4
20/03:30am 7.1 6.4 7.0 99 0.0 CALM 0 0 0 0 1017.4 - 1.4
20/03:22am 7.0 6.3 6.9 99 0.0 CALM 0 0 0 0 1017.3 - 1.4
20/03:00am 6.6 5.8 6.5 99 0.0 CALM 0 0 0 0 1017.2 1017.2 1.4
20/02:39am 6.6 5.3 6.2 97 0.2 S 2 7 1 4 1017.0 - 1.4
20/02:30am 7.4 5.4 7.3 99 0.0 S 7 9 4 5 1016.9 - 1.4
20/02:00am 7.3 6.2 7.0 98 0.1 SSW 2 9 1 5 1017.0 1017.0 1.4
20/01:30am 7.4 5.4 7.3 99 0.0 S 7 11 4 6 1017.1 - 1.4
20/01:00am 8.3 7.9 8.2 99 0.0 CALM 0 0 0 0 1017.0 1017.0 1.4
20/12:30am 8.6 8.3 8.5 99 0.0 CALM 0 0 0 0 1016.8 - 1.4
20/12:16am 8.7 8.4 8.6 99 0.0 CALM 0 0 0 0 1016.9 - 1.4
20/12:01am 8.9 8.6 8.8 99 0.0 CALM 0 0 0 0 1016.9 - 1.4
20/12:00am 8.8 8.5 8.7 99 0.0 CALM 0 0 0 0 1016.9 1016.9 1.4
 
Date/Time
EST
Temp
°C
App
Temp
°C
Dew
Point
Rel
Hum
%
Delta-T
°C
Wind Press
QNH
hPa
Press
MSL
hPa
Rain
since 9 am
mm
Dir
 
Spd
km/h
Gust
km/h
Spd
kts
Gust
kts
19/11:36pm 9.4 9.3 9.3 99 0.0 CALM 0 0 0 0 1016.7 - 1.4
19/11:30pm 9.2 9.0 9.1 99 0.0 CALM 0 0 0 0 1016.7 - 1.2
19/11:00pm 9.0 8.8 8.9 99 0.0 CALM 0 6 0 3 1016.5 1016.5 1.2
19/10:30pm 8.9 8.1 8.3 96 0.3 S 2 7 1 4 1016.4 - 1.2
19/10:27pm 9.0 7.9 8.5 97 0.2 S 4 9 2 5 1016.4 - 1.2
19/10:00pm 10.4 9.2 10.2 99 0.1 SSW 7 9 4 5 1016.4 1016.4 1.2
19/09:30pm 10.6 9.4 10.4 99 0.1 S 7 7 4 4 1016.5 - 1.2
19/09:00pm 10.6 9.4 10.4 99 0.1 S 7 9 4 5 1016.3 1016.3 1.2
19/08:30pm 11.0 10.1 10.5 97 0.3 S 6 9 3 5 1016.1 - 1.2
19/08:00pm 11.6 10.6 11.0 96 0.3 S 7 9 4 5 1016.0 1016.0 1.2
19/07:30pm 12.8 12.9 11.5 92 0.7 SW 2 6 1 3 1015.7 - 1.2
19/07:00pm 12.8 12.0 11.7 93 0.6 SSW 7 9 4 5 1015.3 1015.3 1.2
19/06:30pm 13.3 12.6 11.9 91 0.8 SSW 7 7 4 4 1014.7 - 1.2
19/06:00pm 13.4 12.7 12.0 91 0.8 SW 7 9 4 5 1014.2 1014.2 1.2
19/05:30pm 13.9 14.6 12.3 90 0.9 CALM 0 0 0 0 1013.7 - 1.2
19/05:00pm 14.6 15.5 12.8 89 1.0 CALM 0 0 0 0 1013.4 1013.4 1.2
19/04:30pm 14.7 15.7 13.1 90 0.9 CALM 0 0 0 0 1012.9 - 1.2
19/04:00pm 15.0 14.5 12.5 85 1.4 S 7 9 4 5 1012.7 1012.7 1.0
19/03:55pm 15.1 14.4 12.1 82 1.6 S 7 9 4 5 1012.6 - 1.0
19/03:38pm 16.1 12.0 11.3 73 2.6 SSW 24 28 13 15 1012.6 - 0.8
19/03:30pm 17.8 16.8 10.9 64 3.7 WSW 7 13 4 7 1012.1 - 0.0
19/03:00pm 18.5 17.1 10.8 61 4.2 WSW 9 17 5 9 1011.5 1011.5 0.0
19/02:30pm 20.3 16.8 7.3 43 6.6 S 15 22 8 12 1011.1 - 0.0
19/02:00pm 20.9 17.0 7.2 41 7.0 S 17 24 9 13 1010.8 1010.8 0.0
19/01:30pm 20.0 15.6 7.4 44 6.4 S 20 35 11 19 1010.7 - 0.0
19/01:00pm 21.1 18.1 6.2 38 7.5 SSE 11 17 6 9 1010.3 1010.3 0.0
19/12:30pm 21.3 18.0 6.4 38 7.5 SSW 13 20 7 11 1010.2 - 0.0
19/12:00pm 22.2 18.7 5.6 34 8.3 W 13 24 7 13 1010.4 1010.4 0.0
19/11:30am 22.6 20.0 6.0 34 8.4 WNW 9 15 5 8 1010.9 - 0.0
19/11:00am 21.5 18.1 5.8 36 7.9 W 13 22 7 12 1011.0 1011.0 0.0
19/10:30am 21.1 17.4 6.2 38 7.5 WSW 15 28 8 15 1011.2 - 0.0
19/10:00am 20.4 17.0 6.0 39 7.2 W 13 24 7 13 1011.5 1011.5 0.0
19/09:30am 19.8 15.7 6.2 41 6.8 WSW 17 32 9 17 1011.6 - 0.0
19/09:00am 19.0 15.7 6.5 44 6.2 WSW 13 24 7 13 1011.7 1011.7 0.0
19/08:30am 18.2 15.2 5.8 44 6.1 WSW 11 24 6 13 1011.6 - 0.0
19/08:00am 17.5 15.3 6.4 48 5.5 W 7 15 4 8 1011.3 1011.3 0.0
19/07:30am 16.3 13.8 6.4 52 4.8 W 9 19 5 10 1010.9 - 0.0
19/07:00am 15.0 12.9 6.0 55 4.3 WSW 6 9 3 5 1010.8 1010.8 0.0
19/06:30am 14.3 12.2 5.9 57 4.0 WSW 6 13 3 7 1010.5 - 0.0
19/06:00am 13.9 11.7 6.0 59 3.8 WSW 7 9 4 5 1010.1 1010.1 0.0
19/05:30am 13.9 11.3 6.0 59 3.8 WSW 9 19 5 10 1009.7 - 0.0
19/05:00am 13.0 10.9 6.6 65 3.1 W 7 13 4 7 1009.3 1009.3 0.0
19/04:30am 11.6 10.4 6.3 70 2.5 ENE 2 6 1 3 1009.1 - 0.0
19/04:00am 12.8 12.0 6.6 66 3.0 CALM 0 0 0 0 1008.8 1008.8 0.0
19/03:30am 13.1 12.3 6.7 65 3.1 CALM 0 6 0 3 1008.7 - 0.0
19/03:00am 14.3 12.4 6.6 60 3.7 WNW 6 13 3 7 1008.6 1008.6 0.0
19/02:30am 14.0 12.2 7.1 63 3.4 NNW 6 11 3 6 1008.6 - 0.0
19/02:00am 13.7 11.8 6.8 63 3.3 NNW 6 9 3 5 1008.4 1008.4 0.0
19/01:30am 14.3 12.4 6.9 61 3.6 N 6 11 3 6 1008.6 - 0.0
19/01:00am 14.1 11.7 6.9 62 3.5 NNW 9 17 5 9 1008.5 1008.5 0.0
19/12:30am 13.9 11.9 7.0 63 3.4 NNW 7 11 4 6 1008.9 - 0.0
19/12:00am 14.5 12.6 6.8 60 3.8 NNW 6 13 3 7 1009.0 1009.0 0.0
 
Date/Time
EST
Temp
°C
App
Temp
°C
Dew
Point
Rel
Hum
%
Delta-T
°C
Wind Press
QNH
hPa
Press
MSL
hPa
Rain
since 9 am
mm
Dir
 
Spd
km/h
Gust
km/h
Spd
kts
Gust
kts
18/11:30pm 14.9 13.0 6.7 58 4.0 NNW 6 13 3 7 1009.1 - 0.0
18/11:00pm 15.0 12.1 6.6 57 4.1 NNW 11 17 6 9 1009.3 1009.3 0.0
18/10:30pm 14.4 12.4 7.0 61 3.6 N 7 15 4 8 1009.4 - 0.0
18/10:00pm 15.0 13.1 6.6 57 4.1 NNW 6 15 3 8 1009.4 1009.4 0.0

Other Formats:

Comma delimited format used in spreadsheet applications
http://www.bom.gov.au/fwo/IDN60801/IDN60801.95570.axf

JavaScript Object Notation format (JSON) in row-major order
http://www.bom.gov.au/fwo/IDN60801/IDN60801.95570.json